sensor_id;sensor_type;location;lat;lon;timestamp;P1;durP1;ratioP1;P2;durP2;ratioP2
41631;SDS011;37452;51.938;4.624;2023-07-31T00:01:41;28.50;;;5.68;;
41631;SDS011;37452;51.938;4.624;2023-07-31T00:04:07;20.48;;;4.63;;
41631;SDS011;37452;51.938;4.624;2023-07-31T00:06:32;28.38;;;5.18;;
41631;SDS011;37452;51.938;4.624;2023-07-31T00:08:57;27.30;;;5.38;;
41631;SDS011;37452;51.938;4.624;2023-07-31T00:11:23;25.15;;;5.90;;
41631;SDS011;37452;51.938;4.624;2023-07-31T00:13:48;22.38;;;5.32;;
41631;SDS011;37452;51.938;4.624;2023-07-31T00:16:13;23.50;;;5.95;;
41631;SDS011;37452;51.938;4.624;2023-07-31T00:18:39;22.05;;;5.25;;
41631;SDS011;37452;51.938;4.624;2023-07-31T00:21:04;27.80;;;6.50;;
41631;SDS011;37452;51.938;4.624;2023-07-31T00:23:29;22.48;;;5.30;;
41631;SDS011;37452;51.938;4.624;2023-07-31T00:25:55;30.50;;;5.55;;
41631;SDS011;37452;51.938;4.624;2023-07-31T00:28:20;28.92;;;5.93;;
41631;SDS011;37452;51.938;4.624;2023-07-31T00:30:45;28.98;;;6.10;;
41631;SDS011;37452;51.938;4.624;2023-07-31T00:33:11;31.67;;;6.65;;
41631;SDS011;37452;51.938;4.624;2023-07-31T00:35:37;24.70;;;5.65;;
41631;SDS011;37452;51.938;4.624;2023-07-31T00:38:02;24.05;;;6.32;;
41631;SDS011;37452;51.938;4.624;2023-07-31T00:40:27;20.02;;;5.70;;
41631;SDS011;37452;51.938;4.624;2023-07-31T00:42:53;32.63;;;5.93;;
41631;SDS011;37452;51.938;4.624;2023-07-31T00:45:18;26.75;;;6.82;;
41631;SDS011;37452;51.938;4.624;2023-07-31T00:47:43;25.20;;;6.68;;
41631;SDS011;37452;51.938;4.624;2023-07-31T00:50:09;27.67;;;6.15;;
41631;SDS011;37452;51.938;4.624;2023-07-31T00:52:35;28.08;;;6.95;;
41631;SDS011;37452;51.938;4.624;2023-07-31T00:55:00;25.08;;;5.90;;
41631;SDS011;37452;51.938;4.624;2023-07-31T00:57:26;29.85;;;5.82;;
41631;SDS011;37452;51.938;4.624;2023-07-31T00:59:51;34.42;;;7.05;;
41631;SDS011;37452;51.938;4.624;2023-07-31T01:02:17;21.40;;;4.93;;
41631;SDS011;37452;51.938;4.624;2023-07-31T01:04:43;21.30;;;5.38;;
41631;SDS011;37452;51.938;4.624;2023-07-31T01:07:22;20.17;;;4.22;;
41631;SDS011;37452;51.938;4.624;2023-07-31T01:10:11;17.67;;;4.43;;
41631;SDS011;37452;51.938;4.624;2023-07-31T01:12:42;9.52;;;3.05;;
41631;SDS011;37452;51.938;4.624;2023-07-31T01:15:10;7.13;;;2.67;;
41631;SDS011;37452;51.938;4.624;2023-07-31T01:17:36;9.00;;;2.88;;
41631;SDS011;37452;51.938;4.624;2023-07-31T01:20:03;12.00;;;2.45;;
41631;SDS011;37452;51.938;4.624;2023-07-31T01:22:39;12.10;;;3.55;;
41631;SDS011;37452;51.938;4.624;2023-07-31T01:28:20;17.55;;;5.20;;
41631;SDS011;37452;51.938;4.624;2023-07-31T01:30:52;20.08;;;4.47;;
41631;SDS011;37452;51.938;4.624;2023-07-31T01:33:21;22.23;;;4.85;;
41631;SDS011;37452;51.938;4.624;2023-07-31T01:35:47;26.75;;;4.40;;
41631;SDS011;37452;51.938;4.624;2023-07-31T01:38:14;19.48;;;5.38;;
41631;SDS011;37452;51.938;4.624;2023-07-31T01:40:41;21.98;;;4.60;;
41631;SDS011;37452;51.938;4.624;2023-07-31T01:43:07;15.70;;;5.28;;
41631;SDS011;37452;51.938;4.624;2023-07-31T01:45:32;20.00;;;4.97;;
41631;SDS011;37452;51.938;4.624;2023-07-31T01:47:58;20.95;;;4.43;;
41631;SDS011;37452;51.938;4.624;2023-07-31T01:50:23;27.52;;;6.03;;
41631;SDS011;37452;51.938;4.624;2023-07-31T01:52:48;26.55;;;6.60;;
41631;SDS011;37452;51.938;4.624;2023-07-31T01:55:13;16.63;;;4.65;;
41631;SDS011;37452;51.938;4.624;2023-07-31T01:57:39;22.48;;;6.20;;
41631;SDS011;37452;51.938;4.624;2023-07-31T02:00:05;23.42;;;6.10;;
41631;SDS011;37452;51.938;4.624;2023-07-31T02:02:31;23.80;;;5.28;;
41631;SDS011;37452;51.938;4.624;2023-07-31T02:04:56;29.95;;;6.78;;
41631;SDS011;37452;51.938;4.624;2023-07-31T02:07:22;20.65;;;5.03;;
41631;SDS011;37452;51.938;4.624;2023-07-31T02:09:47;25.77;;;5.78;;
41631;SDS011;37452;51.938;4.624;2023-07-31T02:12:13;30.15;;;6.47;;
41631;SDS011;37452;51.938;4.624;2023-07-31T02:14:39;26.98;;;7.05;;
41631;SDS011;37452;51.938;4.624;2023-07-31T02:17:05;24.15;;;5.78;;
41631;SDS011;37452;51.938;4.624;2023-07-31T02:19:30;26.77;;;5.88;;
41631;SDS011;37452;51.938;4.624;2023-07-31T02:21:56;22.13;;;5.45;;
41631;SDS011;37452;51.938;4.624;2023-07-31T02:24:21;22.85;;;6.25;;
41631;SDS011;37452;51.938;4.624;2023-07-31T02:26:46;26.23;;;5.80;;
41631;SDS011;37452;51.938;4.624;2023-07-31T02:29:12;23.55;;;5.07;;
41631;SDS011;37452;51.938;4.624;2023-07-31T02:31:37;25.23;;;5.80;;
41631;SDS011;37452;51.938;4.624;2023-07-31T02:34:02;23.98;;;6.20;;
41631;SDS011;37452;51.938;4.624;2023-07-31T02:36:28;19.35;;;5.65;;
41631;SDS011;37452;51.938;4.624;2023-07-31T02:38:53;22.05;;;5.50;;
41631;SDS011;37452;51.938;4.624;2023-07-31T02:41:18;16.75;;;4.50;;
41631;SDS011;37452;51.938;4.624;2023-07-31T02:43:44;22.50;;;5.40;;
41631;SDS011;37452;51.938;4.624;2023-07-31T02:46:09;18.02;;;5.45;;
41631;SDS011;37452;51.938;4.624;2023-07-31T02:48:34;21.40;;;4.68;;
41631;SDS011;37452;51.938;4.624;2023-07-31T02:51:00;17.88;;;5.18;;
41631;SDS011;37452;51.938;4.624;2023-07-31T02:53:25;17.63;;;4.30;;
41631;SDS011;37452;51.938;4.624;2023-07-31T02:55:50;24.25;;;5.30;;
41631;SDS011;37452;51.938;4.624;2023-07-31T02:58:16;17.48;;;5.13;;
41631;SDS011;37452;51.938;4.624;2023-07-31T03:00:44;18.25;;;4.53;;
41631;SDS011;37452;51.938;4.624;2023-07-31T03:03:10;18.27;;;4.60;;
41631;SDS011;37452;51.938;4.624;2023-07-31T03:05:35;27.42;;;4.85;;
41631;SDS011;37452;51.938;4.624;2023-07-31T03:08:01;25.73;;;4.63;;
41631;SDS011;37452;51.938;4.624;2023-07-31T03:10:26;19.85;;;4.43;;
41631;SDS011;37452;51.938;4.624;2023-07-31T03:12:52;18.67;;;5.38;;
41631;SDS011;37452;51.938;4.624;2023-07-31T03:15:17;18.33;;;4.78;;
41631;SDS011;37452;51.938;4.624;2023-07-31T03:17:42;20.30;;;5.20;;
41631;SDS011;37452;51.938;4.624;2023-07-31T03:20:08;20.23;;;5.70;;
41631;SDS011;37452;51.938;4.624;2023-07-31T03:22:34;16.40;;;4.57;;
41631;SDS011;37452;51.938;4.624;2023-07-31T03:25:00;26.77;;;5.38;;
41631;SDS011;37452;51.938;4.624;2023-07-31T03:27:26;23.63;;;4.90;;
41631;SDS011;37452;51.938;4.624;2023-07-31T03:29:51;22.15;;;5.50;;
41631;SDS011;37452;51.938;4.624;2023-07-31T03:32:17;13.93;;;5.22;;
41631;SDS011;37452;51.938;4.624;2023-07-31T03:34:42;20.95;;;5.45;;
41631;SDS011;37452;51.938;4.624;2023-07-31T03:37:07;19.30;;;4.85;;
41631;SDS011;37452;51.938;4.624;2023-07-31T03:39:34;22.42;;;5.20;;
41631;SDS011;37452;51.938;4.624;2023-07-31T03:42:00;23.52;;;5.00;;
41631;SDS011;37452;51.938;4.624;2023-07-31T03:44:25;21.33;;;5.10;;
41631;SDS011;37452;51.938;4.624;2023-07-31T03:46:51;14.80;;;4.47;;
41631;SDS011;37452;51.938;4.624;2023-07-31T03:49:16;17.70;;;5.05;;
41631;SDS011;37452;51.938;4.624;2023-07-31T03:51:41;15.35;;;4.70;;
41631;SDS011;37452;51.938;4.624;2023-07-31T03:54:07;18.30;;;5.25;;
41631;SDS011;37452;51.938;4.624;2023-07-31T03:56:32;15.45;;;5.00;;
41631;SDS011;37452;51.938;4.624;2023-07-31T03:58:58;14.07;;;4.80;;
41631;SDS011;37452;51.938;4.624;2023-07-31T04:01:23;15.80;;;4.15;;
41631;SDS011;37452;51.938;4.624;2023-07-31T04:03:49;16.13;;;5.13;;
41631;SDS011;37452;51.938;4.624;2023-07-31T04:06:14;15.20;;;4.97;;
41631;SDS011;37452;51.938;4.624;2023-07-31T04:08:43;15.93;;;4.68;;
41631;SDS011;37452;51.938;4.624;2023-07-31T04:11:08;12.85;;;4.28;;
41631;SDS011;37452;51.938;4.624;2023-07-31T04:13:34;12.85;;;4.13;;
41631;SDS011;37452;51.938;4.624;2023-07-31T04:15:59;11.68;;;3.88;;
41631;SDS011;37452;51.938;4.624;2023-07-31T04:18:25;10.48;;;4.50;;
41631;SDS011;37452;51.938;4.624;2023-07-31T04:20:51;10.10;;;3.53;;
41631;SDS011;37452;51.938;4.624;2023-07-31T04:23:16;12.13;;;4.00;;
41631;SDS011;37452;51.938;4.624;2023-07-31T04:25:41;10.95;;;3.55;;
41631;SDS011;37452;51.938;4.624;2023-07-31T04:28:07;10.77;;;4.03;;
41631;SDS011;37452;51.938;4.624;2023-07-31T04:30:33;12.15;;;3.92;;
41631;SDS011;37452;51.938;4.624;2023-07-31T04:32:58;9.30;;;3.60;;
41631;SDS011;37452;51.938;4.624;2023-07-31T04:35:23;11.40;;;3.40;;
41631;SDS011;37452;51.938;4.624;2023-07-31T04:37:49;10.38;;;4.18;;
41631;SDS011;37452;51.938;4.624;2023-07-31T04:40:15;9.52;;;3.72;;
41631;SDS011;37452;51.938;4.624;2023-07-31T04:42:41;8.55;;;3.83;;
41631;SDS011;37452;51.938;4.624;2023-07-31T04:45:07;12.93;;;3.88;;
41631;SDS011;37452;51.938;4.624;2023-07-31T04:47:33;13.65;;;4.10;;
41631;SDS011;37452;51.938;4.624;2023-07-31T04:49:58;11.88;;;3.63;;
41631;SDS011;37452;51.938;4.624;2023-07-31T04:52:24;10.27;;;4.68;;
41631;SDS011;37452;51.938;4.624;2023-07-31T04:54:49;12.57;;;3.95;;
41631;SDS011;37452;51.938;4.624;2023-07-31T04:57:14;11.32;;;4.30;;
41631;SDS011;37452;51.938;4.624;2023-07-31T04:59:39;13.00;;;4.47;;
41631;SDS011;37452;51.938;4.624;2023-07-31T05:02:05;15.90;;;5.03;;
41631;SDS011;37452;51.938;4.624;2023-07-31T05:04:32;11.02;;;3.90;;
41631;SDS011;37452;51.938;4.624;2023-07-31T05:06:57;13.43;;;3.58;;
41631;SDS011;37452;51.938;4.624;2023-07-31T05:09:22;8.57;;;3.50;;
41631;SDS011;37452;51.938;4.624;2023-07-31T05:11:48;11.00;;;2.85;;
41631;SDS011;37452;51.938;4.624;2023-07-31T05:14:13;7.65;;;2.90;;
41631;SDS011;37452;51.938;4.624;2023-07-31T05:16:39;10.02;;;3.53;;
41631;SDS011;37452;51.938;4.624;2023-07-31T05:19:04;5.68;;;2.67;;
41631;SDS011;37452;51.938;4.624;2023-07-31T05:21:29;5.30;;;2.65;;
41631;SDS011;37452;51.938;4.624;2023-07-31T05:23:55;7.97;;;3.50;;
41631;SDS011;37452;51.938;4.624;2023-07-31T05:26:20;9.93;;;3.15;;
41631;SDS011;37452;51.938;4.624;2023-07-31T05:28:45;5.70;;;2.63;;
41631;SDS011;37452;51.938;4.624;2023-07-31T05:31:11;6.45;;;3.08;;
41631;SDS011;37452;51.938;4.624;2023-07-31T05:33:36;7.15;;;2.88;;
41631;SDS011;37452;51.938;4.624;2023-07-31T05:36:01;11.05;;;2.83;;
41631;SDS011;37452;51.938;4.624;2023-07-31T05:38:27;9.00;;;2.45;;
41631;SDS011;37452;51.938;4.624;2023-07-31T05:40:52;8.18;;;2.92;;
41631;SDS011;37452;51.938;4.624;2023-07-31T05:43:17;7.32;;;2.60;;
41631;SDS011;37452;51.938;4.624;2023-07-31T05:45:44;6.32;;;2.53;;
41631;SDS011;37452;51.938;4.624;2023-07-31T05:48:09;8.95;;;2.95;;
41631;SDS011;37452;51.938;4.624;2023-07-31T05:50:34;5.28;;;2.58;;
41631;SDS011;37452;51.938;4.624;2023-07-31T05:53:00;7.65;;;2.92;;
41631;SDS011;37452;51.938;4.624;2023-07-31T05:55:25;5.88;;;2.47;;
41631;SDS011;37452;51.938;4.624;2023-07-31T05:57:52;6.03;;;2.30;;
41631;SDS011;37452;51.938;4.624;2023-07-31T06:00:17;8.20;;;2.80;;
41631;SDS011;37452;51.938;4.624;2023-07-31T06:02:43;8.48;;;2.65;;
41631;SDS011;37452;51.938;4.624;2023-07-31T06:05:08;5.80;;;2.75;;
41631;SDS011;37452;51.938;4.624;2023-07-31T06:07:34;6.63;;;2.70;;
41631;SDS011;37452;51.938;4.624;2023-07-31T06:09:59;11.52;;;3.60;;
41631;SDS011;37452;51.938;4.624;2023-07-31T06:12:31;7.80;;;2.90;;
41631;SDS011;37452;51.938;4.624;2023-07-31T06:14:56;7.35;;;2.63;;
41631;SDS011;37452;51.938;4.624;2023-07-31T06:17:22;6.43;;;3.00;;
41631;SDS011;37452;51.938;4.624;2023-07-31T06:19:48;8.45;;;2.85;;
41631;SDS011;37452;51.938;4.624;2023-07-31T06:22:13;6.13;;;2.60;;
41631;SDS011;37452;51.938;4.624;2023-07-31T06:24:39;7.47;;;2.92;;
41631;SDS011;37452;51.938;4.624;2023-07-31T06:27:04;7.32;;;3.00;;
41631;SDS011;37452;51.938;4.624;2023-07-31T06:29:31;6.70;;;2.97;;
41631;SDS011;37452;51.938;4.624;2023-07-31T06:31:56;6.35;;;2.85;;
41631;SDS011;37452;51.938;4.624;2023-07-31T06:34:21;4.35;;;1.77;;
41631;SDS011;37452;51.938;4.624;2023-07-31T06:36:47;7.32;;;2.90;;
41631;SDS011;37452;51.938;4.624;2023-07-31T06:39:12;9.30;;;2.80;;
41631;SDS011;37452;51.938;4.624;2023-07-31T06:41:38;5.88;;;2.20;;
41631;SDS011;37452;51.938;4.624;2023-07-31T06:44:03;5.25;;;2.20;;
41631;SDS011;37452;51.938;4.624;2023-07-31T06:46:29;4.97;;;2.22;;
41631;SDS011;37452;51.938;4.624;2023-07-31T06:48:54;4.38;;;2.22;;
41631;SDS011;37452;51.938;4.624;2023-07-31T06:51:20;5.38;;;2.05;;
41631;SDS011;37452;51.938;4.624;2023-07-31T06:53:45;7.40;;;2.22;;
41631;SDS011;37452;51.938;4.624;2023-07-31T06:56:11;6.93;;;2.30;;
41631;SDS011;37452;51.938;4.624;2023-07-31T06:58:36;4.38;;;2.03;;
41631;SDS011;37452;51.938;4.624;2023-07-31T07:01:01;4.65;;;1.83;;
41631;SDS011;37452;51.938;4.624;2023-07-31T07:03:27;4.05;;;1.75;;
41631;SDS011;37452;51.938;4.624;2023-07-31T07:05:52;5.97;;;1.90;;
41631;SDS011;37452;51.938;4.624;2023-07-31T07:08:18;5.38;;;2.05;;
41631;SDS011;37452;51.938;4.624;2023-07-31T07:10:43;3.78;;;1.42;;
41631;SDS011;37452;51.938;4.624;2023-07-31T07:13:08;3.80;;;1.55;;
41631;SDS011;37452;51.938;4.624;2023-07-31T07:15:34;3.25;;;1.30;;
41631;SDS011;37452;51.938;4.624;2023-07-31T07:18:00;3.92;;;1.40;;
41631;SDS011;37452;51.938;4.624;2023-07-31T07:20:25;2.50;;;1.23;;
41631;SDS011;37452;51.938;4.624;2023-07-31T07:22:50;2.95;;;1.55;;
41631;SDS011;37452;51.938;4.624;2023-07-31T07:25:16;3.40;;;1.38;;
41631;SDS011;37452;51.938;4.624;2023-07-31T07:27:41;4.18;;;1.60;;
41631;SDS011;37452;51.938;4.624;2023-07-31T07:30:07;3.17;;;1.80;;
41631;SDS011;37452;51.938;4.624;2023-07-31T07:32:32;3.35;;;1.70;;
41631;SDS011;37452;51.938;4.624;2023-07-31T07:34:58;2.85;;;1.17;;
41631;SDS011;37452;51.938;4.624;2023-07-31T07:37:23;3.08;;;1.60;;
41631;SDS011;37452;51.938;4.624;2023-07-31T07:39:49;2.42;;;1.02;;
41631;SDS011;37452;51.938;4.624;2023-07-31T07:42:14;6.47;;;1.63;;
41631;SDS011;37452;51.938;4.624;2023-07-31T07:44:39;3.88;;;1.48;;
41631;SDS011;37452;51.938;4.624;2023-07-31T07:47:05;4.80;;;1.90;;
41631;SDS011;37452;51.938;4.624;2023-07-31T07:49:33;2.90;;;1.50;;
41631;SDS011;37452;51.938;4.624;2023-07-31T07:52:00;3.78;;;1.13;;
41631;SDS011;37452;51.938;4.624;2023-07-31T07:54:25;1.88;;;1.17;;
41631;SDS011;37452;51.938;4.624;2023-07-31T07:56:51;1.38;;;0.95;;
41631;SDS011;37452;51.938;4.624;2023-07-31T07:59:16;1.98;;;1.00;;
41631;SDS011;37452;51.938;4.624;2023-07-31T08:01:42;3.03;;;1.48;;
41631;SDS011;37452;51.938;4.624;2023-07-31T08:04:07;3.47;;;1.70;;
41631;SDS011;37452;51.938;4.624;2023-07-31T08:06:32;2.97;;;1.20;;
41631;SDS011;37452;51.938;4.624;2023-07-31T08:08:58;2.33;;;1.45;;
41631;SDS011;37452;51.938;4.624;2023-07-31T08:11:24;2.55;;;1.00;;
41631;SDS011;37452;51.938;4.624;2023-07-31T08:13:49;3.08;;;1.00;;
41631;SDS011;37452;51.938;4.624;2023-07-31T08:16:15;2.53;;;0.85;;
41631;SDS011;37452;51.938;4.624;2023-07-31T08:18:40;2.38;;;1.20;;
41631;SDS011;37452;51.938;4.624;2023-07-31T08:21:07;2.35;;;0.88;;
41631;SDS011;37452;51.938;4.624;2023-07-31T08:23:32;2.70;;;1.02;;
41631;SDS011;37452;51.938;4.624;2023-07-31T08:25:58;4.00;;;0.90;;
41631;SDS011;37452;51.938;4.624;2023-07-31T08:28:23;1.63;;;0.70;;
41631;SDS011;37452;51.938;4.624;2023-07-31T08:30:49;4.63;;;0.80;;
41631;SDS011;37452;51.938;4.624;2023-07-31T08:33:15;3.63;;;1.02;;
41631;SDS011;37452;51.938;4.624;2023-07-31T08:35:40;1.73;;;0.50;;
41631;SDS011;37452;51.938;4.624;2023-07-31T08:38:06;1.73;;;0.73;;
41631;SDS011;37452;51.938;4.624;2023-07-31T08:40:31;3.97;;;1.08;;
41631;SDS011;37452;51.938;4.624;2023-07-31T08:42:56;2.13;;;0.85;;
41631;SDS011;37452;51.938;4.624;2023-07-31T08:45:26;1.75;;;0.70;;
41631;SDS011;37452;51.938;4.624;2023-07-31T08:47:52;3.17;;;0.80;;
41631;SDS011;37452;51.938;4.624;2023-07-31T08:50:18;1.35;;;0.93;;
41631;SDS011;37452;51.938;4.624;2023-07-31T08:52:46;1.95;;;0.85;;
41631;SDS011;37452;51.938;4.624;2023-07-31T08:55:12;1.95;;;0.70;;
41631;SDS011;37452;51.938;4.624;2023-07-31T08:57:38;1.52;;;0.60;;
41631;SDS011;37452;51.938;4.624;2023-07-31T09:00:05;2.03;;;0.60;;
41631;SDS011;37452;51.938;4.624;2023-07-31T09:02:37;1.25;;;0.68;;
41631;SDS011;37452;51.938;4.624;2023-07-31T09:05:06;2.08;;;0.70;;
41631;SDS011;37452;51.938;4.624;2023-07-31T09:07:33;2.42;;;0.65;;
41631;SDS011;37452;51.938;4.624;2023-07-31T09:10:00;5.47;;;1.60;;
41631;SDS011;37452;51.938;4.624;2023-07-31T09:12:25;2.95;;;0.85;;
41631;SDS011;37452;51.938;4.624;2023-07-31T09:14:51;1.92;;;1.00;;
41631;SDS011;37452;51.938;4.624;2023-07-31T09:17:16;2.35;;;0.90;;
41631;SDS011;37452;51.938;4.624;2023-07-31T09:19:54;2.45;;;1.40;;
41631;SDS011;37452;51.938;4.624;2023-07-31T09:22:31;3.75;;;1.67;;
41631;SDS011;37452;51.938;4.624;2023-07-31T09:25:03;3.40;;;1.48;;
41631;SDS011;37452;51.938;4.624;2023-07-31T09:27:46;2.90;;;1.55;;
41631;SDS011;37452;51.938;4.624;2023-07-31T09:32:42;5.17;;;1.33;;
41631;SDS011;37452;51.938;4.624;2023-07-31T09:35:19;2.17;;;1.38;;
41631;SDS011;37452;51.938;4.624;2023-07-31T09:37:54;3.00;;;1.35;;
41631;SDS011;37452;51.938;4.624;2023-07-31T09:40:28;3.58;;;1.77;;
41631;SDS011;37452;51.938;4.624;2023-07-31T09:43:05;5.95;;;1.70;;
41631;SDS011;37452;51.938;4.624;2023-07-31T09:45:33;4.85;;;1.80;;
41631;SDS011;37452;51.938;4.624;2023-07-31T09:48:01;3.58;;;1.67;;
41631;SDS011;37452;51.938;4.624;2023-07-31T09:50:27;4.57;;;1.75;;
41631;SDS011;37452;51.938;4.624;2023-07-31T09:52:52;4.82;;;1.90;;
41631;SDS011;37452;51.938;4.624;2023-07-31T09:55:18;3.20;;;1.33;;
41631;SDS011;37452;51.938;4.624;2023-07-31T09:57:45;4.07;;;1.65;;
41631;SDS011;37452;51.938;4.624;2023-07-31T10:00:13;4.20;;;2.00;;
41631;SDS011;37452;51.938;4.624;2023-07-31T10:02:40;2.88;;;1.67;;
41631;SDS011;37452;51.938;4.624;2023-07-31T10:05:07;4.35;;;1.23;;
41631;SDS011;37452;51.938;4.624;2023-07-31T10:07:38;3.38;;;1.50;;
41631;SDS011;37452;51.938;4.624;2023-07-31T10:10:07;3.65;;;1.40;;
41631;SDS011;37452;51.938;4.624;2023-07-31T10:12:33;5.22;;;1.50;;
41631;SDS011;37452;51.938;4.624;2023-07-31T10:14:59;3.75;;;1.88;;
41631;SDS011;37452;51.938;4.624;2023-07-31T10:17:25;3.78;;;1.40;;
41631;SDS011;37452;51.938;4.624;2023-07-31T10:19:51;2.03;;;1.30;;
41631;SDS011;37452;51.938;4.624;2023-07-31T10:22:18;2.47;;;1.40;;
41631;SDS011;37452;51.938;4.624;2023-07-31T10:24:44;2.25;;;1.15;;
41631;SDS011;37452;51.938;4.624;2023-07-31T10:27:11;1.70;;;1.20;;
41631;SDS011;37452;51.938;4.624;2023-07-31T10:29:37;4.15;;;1.60;;
41631;SDS011;37452;51.938;4.624;2023-07-31T10:32:05;4.57;;;1.45;;
41631;SDS011;37452;51.938;4.624;2023-07-31T10:34:35;5.25;;;1.45;;
41631;SDS011;37452;51.938;4.624;2023-07-31T10:40:02;3.47;;;1.60;;
41631;SDS011;37452;51.938;4.624;2023-07-31T10:42:36;5.78;;;1.70;;
41631;SDS011;37452;51.938;4.624;2023-07-31T10:45:05;5.63;;;1.80;;
41631;SDS011;37452;51.938;4.624;2023-07-31T10:47:39;4.68;;;1.77;;
41631;SDS011;37452;51.938;4.624;2023-07-31T10:52:50;6.68;;;2.38;;
41631;SDS011;37452;51.938;4.624;2023-07-31T10:58:09;5.95;;;2.83;;
41631;SDS011;37452;51.938;4.624;2023-07-31T11:00:39;6.18;;;2.42;;
41631;SDS011;37452;51.938;4.624;2023-07-31T11:03:07;7.72;;;2.80;;
41631;SDS011;37452;51.938;4.624;2023-07-31T11:05:43;7.20;;;3.40;;
41631;SDS011;37452;51.938;4.624;2023-07-31T11:08:18;6.35;;;3.60;;
41631;SDS011;37452;51.938;4.624;2023-07-31T11:10:44;6.25;;;3.90;;
41631;SDS011;37452;51.938;4.624;2023-07-31T11:13:11;8.07;;;4.90;;
41631;SDS011;37452;51.938;4.624;2023-07-31T11:15:36;8.25;;;4.00;;
41631;SDS011;37452;51.938;4.624;2023-07-31T11:18:02;10.15;;;4.93;;
41631;SDS011;37452;51.938;4.624;2023-07-31T11:20:31;6.50;;;4.10;;
41631;SDS011;37452;51.938;4.624;2023-07-31T11:23:01;7.68;;;4.03;;
41631;SDS011;37452;51.938;4.624;2023-07-31T11:25:28;10.30;;;4.55;;
41631;SDS011;37452;51.938;4.624;2023-07-31T11:28:01;10.27;;;5.10;;
41631;SDS011;37452;51.938;4.624;2023-07-31T11:30:28;8.98;;;4.68;;
41631;SDS011;37452;51.938;4.624;2023-07-31T11:32:55;8.75;;;4.70;;
41631;SDS011;37452;51.938;4.624;2023-07-31T11:35:20;6.72;;;4.80;;
41631;SDS011;37452;51.938;4.624;2023-07-31T11:37:47;6.55;;;3.95;;
41631;SDS011;37452;51.938;4.624;2023-07-31T11:40:13;6.55;;;4.07;;
41631;SDS011;37452;51.938;4.624;2023-07-31T11:42:39;8.02;;;4.47;;
41631;SDS011;37452;51.938;4.624;2023-07-31T11:45:05;6.40;;;4.18;;
41631;SDS011;37452;51.938;4.624;2023-07-31T11:47:32;6.05;;;3.80;;
41631;SDS011;37452;51.938;4.624;2023-07-31T11:50:05;6.88;;;3.90;;
41631;SDS011;37452;51.938;4.624;2023-07-31T11:52:40;7.13;;;3.53;;
41631;SDS011;37452;51.938;4.624;2023-07-31T11:55:08;8.38;;;3.95;;
41631;SDS011;37452;51.938;4.624;2023-07-31T11:57:38;8.20;;;3.53;;
41631;SDS011;37452;51.938;4.624;2023-07-31T12:00:05;4.20;;;2.65;;
41631;SDS011;37452;51.938;4.624;2023-07-31T12:02:34;5.93;;;3.33;;
41631;SDS011;37452;51.938;4.624;2023-07-31T12:05:00;8.13;;;3.80;;
41631;SDS011;37452;51.938;4.624;2023-07-31T12:07:26;8.32;;;3.10;;
41631;SDS011;37452;51.938;4.624;2023-07-31T12:09:54;6.35;;;3.05;;
41631;SDS011;37452;51.938;4.624;2023-07-31T12:12:20;6.93;;;3.22;;
41631;SDS011;37452;51.938;4.624;2023-07-31T12:14:47;5.65;;;2.67;;
41631;SDS011;37452;51.938;4.624;2023-07-31T12:17:12;3.33;;;2.50;;
41631;SDS011;37452;51.938;4.624;2023-07-31T12:19:39;3.92;;;1.90;;
41631;SDS011;37452;51.938;4.624;2023-07-31T12:22:14;6.80;;;2.95;;
41631;SDS011;37452;51.938;4.624;2023-07-31T12:24:43;8.38;;;2.75;;
41631;SDS011;37452;51.938;4.624;2023-07-31T12:27:12;4.60;;;2.75;;
41631;SDS011;37452;51.938;4.624;2023-07-31T12:29:39;5.60;;;2.42;;
41631;SDS011;37452;51.938;4.624;2023-07-31T12:32:23;5.90;;;2.53;;
41631;SDS011;37452;51.938;4.624;2023-07-31T12:34:50;5.60;;;2.75;;
41631;SDS011;37452;51.938;4.624;2023-07-31T12:37:15;3.40;;;2.03;;
41631;SDS011;37452;51.938;4.624;2023-07-31T12:39:41;4.65;;;2.47;;
41631;SDS011;37452;51.938;4.624;2023-07-31T12:42:06;4.32;;;2.45;;
41631;SDS011;37452;51.938;4.624;2023-07-31T12:44:31;6.22;;;2.40;;
41631;SDS011;37452;51.938;4.624;2023-07-31T12:46:57;2.40;;;1.80;;
41631;SDS011;37452;51.938;4.624;2023-07-31T12:49:22;2.60;;;1.40;;
41631;SDS011;37452;51.938;4.624;2023-07-31T12:51:48;8.05;;;1.90;;
41631;SDS011;37452;51.938;4.624;2023-07-31T12:54:13;2.22;;;1.35;;
41631;SDS011;37452;51.938;4.624;2023-07-31T12:56:39;2.13;;;1.05;;
41631;SDS011;37452;51.938;4.624;2023-07-31T12:59:05;3.60;;;1.00;;
41631;SDS011;37452;51.938;4.624;2023-07-31T13:01:31;2.70;;;1.05;;
41631;SDS011;37452;51.938;4.624;2023-07-31T13:03:56;1.70;;;1.08;;
41631;SDS011;37452;51.938;4.624;2023-07-31T13:06:22;2.90;;;1.17;;
41631;SDS011;37452;51.938;4.624;2023-07-31T13:08:47;1.80;;;1.10;;
41631;SDS011;37452;51.938;4.624;2023-07-31T13:11:13;2.67;;;1.00;;
41631;SDS011;37452;51.938;4.624;2023-07-31T13:13:38;3.22;;;1.40;;
41631;SDS011;37452;51.938;4.624;2023-07-31T13:16:03;3.78;;;1.48;;
41631;SDS011;37452;51.938;4.624;2023-07-31T13:18:29;2.28;;;1.40;;
41631;SDS011;37452;51.938;4.624;2023-07-31T13:20:54;2.08;;;1.23;;
41631;SDS011;37452;51.938;4.624;2023-07-31T13:23:20;2.35;;;1.60;;
41631;SDS011;37452;51.938;4.624;2023-07-31T13:25:45;2.53;;;1.30;;
41631;SDS011;37452;51.938;4.624;2023-07-31T13:28:10;2.72;;;1.83;;
41631;SDS011;37452;51.938;4.624;2023-07-31T13:30:36;2.92;;;1.33;;
41631;SDS011;37452;51.938;4.624;2023-07-31T13:33:01;2.85;;;1.63;;
41631;SDS011;37452;51.938;4.624;2023-07-31T13:35:27;3.17;;;1.77;;
41631;SDS011;37452;51.938;4.624;2023-07-31T13:37:52;1.88;;;1.27;;
41631;SDS011;37452;51.938;4.624;2023-07-31T13:40:18;2.80;;;1.50;;
41631;SDS011;37452;51.938;4.624;2023-07-31T13:42:43;2.90;;;1.55;;
41631;SDS011;37452;51.938;4.624;2023-07-31T13:45:09;3.50;;;1.80;;
41631;SDS011;37452;51.938;4.624;2023-07-31T13:47:34;2.40;;;1.50;;
41631;SDS011;37452;51.938;4.624;2023-07-31T13:50:02;2.90;;;1.30;;
41631;SDS011;37452;51.938;4.624;2023-07-31T13:52:27;2.15;;;1.25;;
41631;SDS011;37452;51.938;4.624;2023-07-31T13:54:52;2.70;;;1.38;;
41631;SDS011;37452;51.938;4.624;2023-07-31T13:57:18;2.47;;;1.30;;
41631;SDS011;37452;51.938;4.624;2023-07-31T13:59:43;2.17;;;1.60;;
41631;SDS011;37452;51.938;4.624;2023-07-31T14:02:08;1.88;;;1.00;;
41631;SDS011;37452;51.938;4.624;2023-07-31T14:04:34;1.60;;;1.00;;
41631;SDS011;37452;51.938;4.624;2023-07-31T14:06:59;2.72;;;1.02;;
41631;SDS011;37452;51.938;4.624;2023-07-31T14:09:25;1.50;;;0.73;;
41631;SDS011;37452;51.938;4.624;2023-07-31T14:11:50;2.53;;;1.30;;
41631;SDS011;37452;51.938;4.624;2023-07-31T14:14:16;2.92;;;1.25;;
41631;SDS011;37452;51.938;4.624;2023-07-31T14:16:43;2.33;;;1.80;;
41631;SDS011;37452;51.938;4.624;2023-07-31T14:19:08;5.43;;;1.65;;
41631;SDS011;37452;51.938;4.624;2023-07-31T14:21:33;3.20;;;1.77;;
41631;SDS011;37452;51.938;4.624;2023-07-31T14:23:59;3.03;;;1.70;;
41631;SDS011;37452;51.938;4.624;2023-07-31T14:26:24;2.83;;;1.60;;
41631;SDS011;37452;51.938;4.624;2023-07-31T14:28:49;3.30;;;1.90;;
41631;SDS011;37452;51.938;4.624;2023-07-31T14:31:15;4.13;;;2.15;;
41631;SDS011;37452;51.938;4.624;2023-07-31T14:33:41;3.20;;;1.70;;
41631;SDS011;37452;51.938;4.624;2023-07-31T14:36:06;4.15;;;1.80;;
41631;SDS011;37452;51.938;4.624;2023-07-31T14:38:31;3.00;;;1.73;;
41631;SDS011;37452;51.938;4.624;2023-07-31T14:40:57;3.53;;;1.58;;
41631;SDS011;37452;51.938;4.624;2023-07-31T14:43:23;4.15;;;1.90;;
41631;SDS011;37452;51.938;4.624;2023-07-31T14:45:48;4.35;;;1.95;;
41631;SDS011;37452;51.938;4.624;2023-07-31T14:48:14;3.75;;;1.88;;
41631;SDS011;37452;51.938;4.624;2023-07-31T14:50:39;3.47;;;2.40;;
41631;SDS011;37452;51.938;4.624;2023-07-31T14:53:05;5.30;;;2.45;;